Time;durP1;ratioP1;P1;durP2;ratioP2;P2;SDS_P1;SDS_P2;PMS_P1;PMS_P2;Temp;Humidity;BMP_temperature;BMP_pressure;BME280_temperature;BME280_humidity;BME280_pressure;Samples;Min_cycle;Max_cycle;Signal;HPM_P1;HPM_P2
2024/04/23 00:01:25;;;;;;;14.07;7.87;;;;;;;;;;5317532;26;20004;-54
2024/04/23 00:03:50;;;;;;;15.30;7.90;;;;;;;;;;5315828;26;19993;-52
2024/04/23 00:06:15;;;;;;;10.67;7.60;;;;;;;;;;5315717;27;20283;-52
2024/04/23 00:08:40;;;;;;;10.37;7.53;;;;;;;;;;5318293;26;20375;-53
2024/04/23 00:11:06;;;;;;;11.90;6.73;;;;;;;;;;5350176;26;20294;-52
2024/04/23 00:13:31;;;;;;;13.17;7.07;;;;;;;;;;5348267;26;19997;-56
2024/04/23 00:15:56;;;;;;;11.07;6.90;;;;;;;;;;5335774;26;19993;-52
2024/04/23 00:18:21;;;;;;;10.07;7.13;;;;;;;;;;5315650;26;20009;-53
2024/04/23 00:20:47;;;;;;;11.03;6.80;;;;;;;;;;5316400;26;20011;-55
2024/04/23 00:23:12;;;;;;;10.57;6.60;;;;;;;;;;5315189;27;20319;-55
2024/04/23 00:25:38;;;;;;;11.60;7.50;;;;;;;;;;5315682;26;19997;-53
2024/04/23 00:28:03;;;;;;;9.73;7.30;;;;;;;;;;5315785;26;20388;-53
2024/04/23 00:30:28;;;;;;;9.13;7.03;;;;;;;;;;5313882;27;20001;-54
2024/04/23 00:32:53;;;;;;;9.97;7.20;;;;;;;;;;5318155;26;20008;-52
2024/04/23 00:35:18;;;;;;;14.50;7.27;;;;;;;;;;5315226;27;20001;-53
2024/04/23 00:37:44;;;;;;;11.17;7.40;;;;;;;;;;5315499;27;20009;-53
2024/04/23 00:40:09;;;;;;;12.13;7.63;;;;;;;;;;5315429;27;20006;-54
2024/04/23 00:42:34;;;;;;;9.50;6.60;;;;;;;;;;5314928;26;20474;-54
2024/04/23 00:44:59;;;;;;;10.57;7.50;;;;;;;;;;5315620;26;19997;-54
2024/04/23 00:47:24;;;;;;;10.80;7.30;;;;;;;;;;5335643;26;20007;-53
2024/04/23 00:49:50;;;;;;;9.30;7.13;;;;;;;;;;5348921;26;20079;-53
2024/04/23 00:52:15;;;;;;;10.27;7.28;;;;;;;;;;5349209;26;20292;-53
2024/04/23 00:54:41;;;;;;;10.20;7.60;;;;;;;;;;5336180;26;20077;-57
2024/04/23 00:57:06;;;;;;;11.20;7.37;;;;;;;;;;5315393;26;20002;-55
2024/04/23 00:59:31;;;;;;;10.30;7.30;;;;;;;;;;5315253;27;20349;-53
2024/04/23 01:01:57;;;;;;;9.75;6.38;;;;;;;;;;5316681;26;20403;-55
2024/04/23 01:04:22;;;;;;;13.37;7.30;;;;;;;;;;5314887;27;19993;-54
2024/04/23 01:06:49;;;;;;;9.85;7.30;;;;;;;;;;5315039;27;19997;-54
2024/04/23 01:09:15;;;;;;;11.20;6.83;;;;;;;;;;5319326;26;20012;-53
2024/04/23 01:11:40;;;;;;;10.50;7.00;;;;;;;;;;5350106;26;20302;-54
2024/04/23 01:14:05;;;;;;;11.87;7.17;;;;;;;;;;5349607;26;20398;-55
2024/04/23 01:16:33;;;;;;;13.30;7.07;;;;;;;;;;5348931;26;20354;-54
2024/04/23 01:18:58;;;;;;;9.40;6.43;;;;;;;;;;5348256;26;20020;-55
2024/04/23 01:21:28;;;;;;;9.30;7.00;;;;;;;;;;5349213;26;20001;-52
2024/04/23 01:23:57;;;;;;;11.90;7.50;;;;;;;;;;5348275;26;20001;-54
2024/04/23 01:26:23;;;;;;;10.77;7.00;;;;;;;;;;5349313;26;20417;-55
2024/04/23 01:28:48;;;;;;;11.37;7.50;;;;;;;;;;5342566;26;20131;-55
2024/04/23 01:31:14;;;;;;;9.67;7.10;;;;;;;;;;5314562;26;19997;-53
2024/04/23 01:33:40;;;;;;;11.17;7.73;;;;;;;;;;5314435;26;20008;-56
2024/04/23 01:36:07;;;;;;;10.23;6.93;;;;;;;;;;5316559;26;20391;-55
2024/04/23 01:38:32;;;;;;;11.10;6.90;;;;;;;;;;5315087;26;20005;-54
2024/04/23 01:40:58;;;;;;;11.27;7.53;;;;;;;;;;5314648;26;20008;-57
2024/04/23 01:43:23;;;;;;;14.40;7.50;;;;;;;;;;5328169;26;20005;-57
2024/04/23 01:45:49;;;;;;;10.03;7.27;;;;;;;;;;5348794;26;20048;-57
2024/04/23 01:48:14;;;;;;;10.13;7.07;;;;;;;;;;5348668;26;20028;-56
2024/04/23 01:50:39;;;;;;;11.97;6.73;;;;;;;;;;5347675;26;20003;-56
2024/04/23 01:53:05;;;;;;;10.63;7.03;;;;;;;;;;5348734;26;20001;-57
2024/04/23 01:55:30;;;;;;;10.67;7.43;;;;;;;;;;5329342;26;20024;-55
2024/04/23 01:57:55;;;;;;;13.20;6.70;;;;;;;;;;5313741;26;19989;-56
2024/04/23 02:00:22;;;;;;;12.23;6.77;;;;;;;;;;5313864;27;20025;-57
2024/04/23 02:02:48;;;;;;;10.27;6.97;;;;;;;;;;5313649;27;20064;-56
2024/04/23 02:05:14;;;;;;;10.57;7.00;;;;;;;;;;5314236;26;20435;-53
2024/04/23 02:07:40;;;;;;;12.43;7.10;;;;;;;;;;5313988;26;20407;-53
2024/04/23 02:10:05;;;;;;;10.17;7.07;;;;;;;;;;5317111;26;20064;-55
2024/04/23 02:12:30;;;;;;;12.37;7.53;;;;;;;;;;5348384;26;20052;-54
2024/04/23 02:14:56;;;;;;;14.47;7.13;;;;;;;;;;5346377;26;20415;-54
2024/04/23 02:17:21;;;;;;;11.00;7.13;;;;;;;;;;5348427;26;20001;-52
2024/04/23 02:19:46;;;;;;;12.30;7.80;;;;;;;;;;5348174;26;20003;-55
2024/04/23 02:22:11;;;;;;;12.60;7.03;;;;;;;;;;5316806;26;19998;-55
2024/04/23 02:24:38;;;;;;;11.63;7.57;;;;;;;;;;5321707;26;20001;-52
2024/04/23 02:27:03;;;;;;;12.70;7.07;;;;;;;;;;5347864;26;20464;-56
2024/04/23 02:29:28;;;;;;;9.90;6.17;;;;;;;;;;5347798;26;20000;-53
2024/04/23 02:31:58;;;;;;;13.17;7.00;;;;;;;;;;5348981;26;20268;-56
2024/04/23 02:34:23;;;;;;;10.37;7.53;;;;;;;;;;5317062;27;20395;-57
2024/04/23 02:36:48;;;;;;;10.90;7.13;;;;;;;;;;5317130;27;20001;-57
2024/04/23 02:39:13;;;;;;;10.37;7.50;;;;;;;;;;5319393;26;20019;-53
2024/04/23 02:41:48;;;;;;;10.17;7.70;;;;;;;;;;5351170;26;20008;-54
2024/04/23 02:44:13;;;;;;;11.20;7.67;;;;;;;;;;5351181;26;20290;-56
2024/04/23 02:46:39;;;;;;;9.60;7.20;;;;;;;;;;5349058;26;19997;-56
2024/04/23 02:49:04;;;;;;;10.00;7.20;;;;;;;;;;5351202;26;19997;-57
2024/04/23 02:51:29;;;;;;;10.67;6.60;;;;;;;;;;5351204;26;19997;-56
2024/04/23 02:53:54;;;;;;;10.37;7.00;;;;;;;;;;5337875;26;20053;-54
2024/04/23 02:56:20;;;;;;;10.30;7.00;;;;;;;;;;5320713;26;20001;-56
2024/04/23 02:58:45;;;;;;;9.20;6.73;;;;;;;;;;5351243;26;20001;-57
2024/04/23 03:01:10;;;;;;;10.20;6.37;;;;;;;;;;5366127;21;19993;-89
2024/04/23 03:03:37;;;;;;;9.27;6.93;;;;;;;;;;5351508;26;19997;-89
2024/04/23 03:06:03;;;;;;;9.17;7.10;;;;;;;;;;5321274;26;19989;-89
2024/04/23 03:08:29;;;;;;;10.90;7.07;;;;;;;;;;5321740;26;19997;-89
2024/04/23 03:10:57;;;;;;;11.73;6.97;;;;;;;;;;5351675;26;20066;-89
2024/04/23 03:13:22;;;;;;;13.40;6.93;;;;;;;;;;5350375;26;20004;-89
2024/04/23 03:15:47;;;;;;;12.67;6.97;;;;;;;;;;5349866;26;19996;-89
2024/04/23 03:18:12;;;;;;;9.40;6.93;;;;;;;;;;5350393;26;20005;-89
2024/04/23 03:20:37;;;;;;;10.33;7.40;;;;;;;;;;5343273;26;20438;-89
2024/04/23 03:23:03;;;;;;;12.90;7.23;;;;;;;;;;5320855;26;20390;-89
2024/04/23 03:25:28;;;;;;;10.37;7.70;;;;;;;;;;5320741;26;19993;-89
2024/04/23 03:27:53;;;;;;;11.73;6.87;;;;;;;;;;5351445;26;20457;-88
2024/04/23 03:30:19;;;;;;;8.70;6.37;;;;;;;;;;5351958;26;20065;-88
2024/04/23 03:32:44;;;;;;;12.47;7.23;;;;;;;;;;5320819;26;19993;-88
2024/04/23 03:35:10;;;;;;;10.57;7.10;;;;;;;;;;5320519;26;20008;-88
2024/04/23 03:37:36;;;;;;;9.60;6.70;;;;;;;;;;5351430;26;20007;-88
2024/04/23 03:40:02;;;;;;;15.17;7.27;;;;;;;;;;5320743;26;20008;-88
2024/04/23 03:42:27;;;;;;;12.07;7.30;;;;;;;;;;5350347;26;20029;-88
2024/04/23 03:44:52;;;;;;;11.13;6.67;;;;;;;;;;5351442;26;20465;-88
2024/04/23 03:47:19;;;;;;;13.97;7.13;;;;;;;;;;5350761;26;19993;-88
2024/04/23 03:49:44;;;;;;;10.83;7.60;;;;;;;;;;5351537;26;19997;-89
2024/04/23 03:52:12;;;;;;;12.83;7.20;;;;;;;;;;5320953;26;20071;-89
2024/04/23 03:54:38;;;;;;;11.17;7.00;;;;;;;;;;5320688;26;20001;-89
2024/04/23 03:57:03;;;;;;;10.80;6.80;;;;;;;;;;5320669;26;20019;-88
2024/04/23 03:59:30;;;;;;;11.57;7.13;;;;;;;;;;5351300;26;20001;-88
2024/04/23 04:07:23;;;;;;;12.53;7.40;;;;;;;;;;5386453;26;20015;-52
2024/04/23 04:09:49;;;;;;;14.30;7.23;;;;;;;;;;5385242;26;19996;-52
2024/04/23 04:12:16;;;;;;;12.03;6.93;;;;;;;;;;5385176;26;19996;-51
2024/04/23 04:14:43;;;;;;;12.60;7.57;;;;;;;;;;5383035;26;20004;-52
2024/04/23 04:17:09;;;;;;;12.17;7.03;;;;;;;;;;5384985;26;20078;-51
2024/04/23 04:19:36;;;;;;;11.10;7.10;;;;;;;;;;5382932;26;20302;-52
2024/04/23 04:22:03;;;;;;;11.70;7.20;;;;;;;;;;5380328;26;19996;-54
2024/04/23 04:24:30;;;;;;;13.10;7.00;;;;;;;;;;5387459;26;20386;-52
2024/04/23 04:26:56;;;;;;;11.63;7.63;;;;;;;;;;5383250;26;20032;-51
2024/04/23 04:29:23;;;;;;;16.23;8.07;;;;;;;;;;5384605;26;20000;-50
2024/04/23 04:31:49;;;;;;;10.83;7.47;;;;;;;;;;5399939;26;20346;-50
2024/04/23 04:34:15;;;;;;;12.87;7.87;;;;;;;;;;5420712;26;19999;-51
2024/04/23 04:36:40;;;;;;;11.80;7.97;;;;;;;;;;5420531;26;19991;-51
2024/04/23 04:39:07;;;;;;;11.37;7.63;;;;;;;;;;5420518;26;20006;-51
2024/04/23 04:41:32;;;;;;;14.47;7.60;;;;;;;;;;5419523;26;20000;-51
2024/04/23 04:43:57;;;;;;;11.63;7.57;;;;;;;;;;5420159;26;19996;-51
2024/04/23 04:46:24;;;;;;;10.23;7.40;;;;;;;;;;5420505;26;19996;-50
2024/04/23 04:48:51;;;;;;;11.87;7.53;;;;;;;;;;5420701;26;20069;-51
2024/04/23 04:51:18;;;;;;;12.50;7.97;;;;;;;;;;5420190;26;20011;-50
2024/04/23 04:53:44;;;;;;;11.27;7.70;;;;;;;;;;5418865;26;20020;-51
2024/04/23 04:56:09;;;;;;;10.60;7.47;;;;;;;;;;5401280;26;19992;-50
2024/04/23 04:58:36;;;;;;;12.07;7.77;;;;;;;;;;5384052;26;20014;-51
2024/04/23 05:01:01;;;;;;;11.30;7.37;;;;;;;;;;5384212;26;20008;-51
2024/04/23 05:03:26;;;;;;;12.73;7.80;;;;;;;;;;5384108;26;20015;-51
2024/04/23 05:05:52;;;;;;;13.93;7.60;;;;;;;;;;5384381;26;20000;-50
2024/04/23 05:08:17;;;;;;;12.17;7.17;;;;;;;;;;5388041;26;20000;-50
2024/04/23 05:10:42;;;;;;;9.27;7.10;;;;;;;;;;5385004;26;20478;-50
2024/04/23 05:13:08;;;;;;;10.57;7.57;;;;;;;;;;5383989;26;20000;-51
2024/04/23 05:15:34;;;;;;;10.80;7.73;;;;;;;;;;5384213;26;20016;-52
2024/04/23 05:17:59;;;;;;;13.70;7.97;;;;;;;;;;5384908;26;19996;-51
2024/04/23 05:20:24;;;;;;;11.73;7.67;;;;;;;;;;5384820;26;20066;-52
2024/04/23 05:22:49;;;;;;;9.90;7.37;;;;;;;;;;5384475;26;20004;-53
2024/04/23 05:25:16;;;;;;;12.37;7.30;;;;;;;;;;5386075;26;20004;-53
2024/04/23 05:27:41;;;;;;;12.37;7.10;;;;;;;;;;5384844;26;20010;-55
2024/04/23 05:30:06;;;;;;;13.00;7.67;;;;;;;;;;5384793;26;19992;-52
2024/04/23 05:32:47;;;;;;;10.00;7.10;;;;;;;;;;5384902;26;20000;-51
2024/04/23 05:35:13;;;;;;;11.93;7.83;;;;;;;;;;5384977;26;20067;-51
2024/04/23 05:37:38;;;;;;;14.13;7.90;;;;;;;;;;5390772;26;20003;-51
2024/04/23 05:40:07;;;;;;;10.23;7.13;;;;;;;;;;5419626;26;19996;-53
2024/04/23 05:42:32;;;;;;;10.80;7.07;;;;;;;;;;5419053;26;20016;-56
2024/04/23 05:44:57;;;;;;;10.67;6.83;;;;;;;;;;5396634;26;20480;-53
2024/04/23 05:47:22;;;;;;;13.80;7.67;;;;;;;;;;5347563;26;19996;-53
2024/04/23 05:50:06;;;;;;;14.23;7.67;;;;;;;;;;5352512;26;19999;-51
2024/04/23 05:52:50;;;;;;;13.70;7.70;;;;;;;;;;5384527;26;20002;-52
2024/04/23 05:55:29;;;;;;;13.70;7.70;;;;;;;;;;5384804;26;20033;-52
2024/04/23 05:57:54;;;;;;;12.50;7.80;;;;;;;;;;5384183;26;20001;-51
2024/04/23 06:00:19;;;;;;;21.23;7.77;;;;;;;;;;5417948;26;20403;-51
2024/04/23 06:02:45;;;;;;;14.03;8.77;;;;;;;;;;5419531;26;19988;-51
2024/04/23 06:05:10;;;;;;;15.93;9.07;;;;;;;;;;5420897;26;19991;-52
2024/04/23 06:07:35;;;;;;;17.17;10.57;;;;;;;;;;5421594;26;19995;-51
2024/04/23 06:10:00;;;;;;;15.33;10.23;;;;;;;;;;5423018;26;19988;-51
2024/04/23 06:12:26;;;;;;;17.20;10.67;;;;;;;;;;5417695;26;20057;-51
2024/04/23 06:14:51;;;;;;;21.00;11.87;;;;;;;;;;5388718;26;20007;-51
2024/04/23 06:17:20;;;;;;;20.13;10.77;;;;;;;;;;5385195;26;20062;-51
2024/04/23 06:19:49;;;;;;;15.73;10.57;;;;;;;;;;5387043;26;20029;-51
2024/04/23 06:22:15;;;;;;;17.73;11.03;;;;;;;;;;5387092;26;20042;-51
2024/04/23 06:24:40;;;;;;;17.17;10.27;;;;;;;;;;5387421;26;20011;-54
2024/04/23 06:27:06;;;;;;;16.53;9.90;;;;;;;;;;5387258;26;19992;-52
2024/04/23 06:29:31;;;;;;;14.90;8.93;;;;;;;;;;5390203;26;20004;-51
2024/04/23 06:31:56;;;;;;;11.98;8.35;;;;;;;;;;5386794;26;20381;-51
2024/04/23 06:34:21;;;;;;;17.60;9.03;;;;;;;;;;5386914;26;19992;-50
2024/04/23 06:36:46;;;;;;;14.32;8.95;;;;;;;;;;5387811;26;19996;-52
2024/04/23 06:39:12;;;;;;;13.90;8.10;;;;;;;;;;5386997;26;19993;-50
2024/04/23 06:41:37;;;;;;;14.65;7.95;;;;;;;;;;5386667;26;19992;-54
2024/04/23 06:44:02;;;;;;;12.50;7.97;;;;;;;;;;5406185;26;20291;-51
2024/04/23 06:46:27;;;;;;;13.20;7.75;;;;;;;;;;5422187;26;20480;-50
2024/04/23 06:48:55;;;;;;;15.83;7.50;;;;;;;;;;5421916;26;20396;-52
2024/04/23 06:51:20;;;;;;;14.63;7.80;;;;;;;;;;5421085;26;20010;-50
2024/04/23 06:53:45;;;;;;;10.75;7.07;;;;;;;;;;5422092;26;19991;-54
2024/04/23 06:56:10;;;;;;;15.05;8.13;;;;;;;;;;5421226;26;19996;-52
2024/04/23 06:58:35;;;;;;;13.93;7.00;;;;;;;;;;5419979;26;19999;-52
2024/04/23 07:01:01;;;;;;;10.10;6.60;;;;;;;;;;5421194;26;20004;-51
2024/04/23 07:03:26;;;;;;;10.60;6.15;;;;;;;;;;5421875;26;20000;-51
2024/04/23 07:05:51;;;;;;;8.25;5.45;;;;;;;;;;5421874;26;19996;-51
2024/04/23 07:08:17;;;;;;;8.68;4.70;;;;;;;;;;5421611;26;20408;-50
2024/04/23 07:10:42;;;;;;;8.90;5.20;;;;;;;;;;5421699;26;20019;-51
2024/04/23 07:13:07;;;;;;;10.07;6.13;;;;;;;;;;5391141;26;19992;-51
2024/04/23 07:15:32;;;;;;;11.32;5.90;;;;;;;;;;5385828;26;19996;-50
2024/04/23 07:17:57;;;;;;;10.73;5.82;;;;;;;;;;5385690;26;19998;-51
2024/04/23 07:20:23;;;;;;;7.95;5.65;;;;;;;;;;5386172;26;19988;-52
2024/04/23 07:22:48;;;;;;;11.35;5.55;;;;;;;;;;5385778;26;20004;-51
2024/04/23 07:25:13;;;;;;;7.47;5.00;;;;;;;;;;5387904;26;20404;-52
2024/04/23 07:27:39;;;;;;;7.95;5.35;;;;;;;;;;5421948;26;20431;-54
2024/04/23 07:30:04;;;;;;;8.55;4.95;;;;;;;;;;5421797;26;20004;-52
2024/04/23 07:32:30;;;;;;;10.45;4.55;;;;;;;;;;5421635;26;20006;-51
2024/04/23 07:34:57;;;;;;;9.13;4.85;;;;;;;;;;5421927;26;19991;-51
2024/04/23 07:37:22;;;;;;;9.10;4.80;;;;;;;;;;5422152;26;20003;-51
2024/04/23 07:39:47;;;;;;;10.43;5.15;;;;;;;;;;5421776;26;20265;-51
2024/04/23 07:42:12;;;;;;;9.43;4.60;;;;;;;;;;5420742;26;19988;-51
2024/04/23 07:44:38;;;;;;;8.75;4.65;;;;;;;;;;5412916;26;20414;-51
2024/04/23 07:47:03;;;;;;;10.73;5.50;;;;;;;;;;5385775;26;20050;-51
2024/04/23 07:49:28;;;;;;;9.10;5.50;;;;;;;;;;5420604;26;20261;-51
2024/04/23 07:51:53;;;;;;;8.88;5.38;;;;;;;;;;5416129;26;20356;-52
2024/04/23 07:54:19;;;;;;;8.90;4.93;;;;;;;;;;5385694;26;19996;-51
2024/04/23 07:56:44;;;;;;;10.18;5.00;;;;;;;;;;5386571;26;20000;-51
2024/04/23 07:59:09;;;;;;;7.38;4.45;;;;;;;;;;5385761;26;20006;-51
2024/04/23 08:01:34;;;;;;;7.63;4.63;;;;;;;;;;5388764;26;19996;-51
2024/04/23 08:04:01;;;;;;;7.97;4.57;;;;;;;;;;5421714;26;19996;-53
2024/04/23 08:06:26;;;;;;;6.28;4.00;;;;;;;;;;5421679;26;20007;-52
2024/04/23 08:08:53;;;;;;;9.68;4.25;;;;;;;;;;5421180;26;20062;-52
2024/04/23 08:11:20;;;;;;;6.32;3.40;;;;;;;;;;5370904;26;20004;-51
2024/04/23 08:13:45;;;;;;;6.53;3.30;;;;;;;;;;5359242;26;20015;-53
2024/04/23 08:16:13;;;;;;;7.32;3.45;;;;;;;;;;5364248;26;20469;-51
2024/04/23 08:18:40;;;;;;;8.13;3.45;;;;;;;;;;5357304;26;20408;-54
2024/04/23 08:21:05;;;;;;;6.07;3.30;;;;;;;;;;5366703;26;20001;-54
2024/04/23 08:23:34;;;;;;;6.07;3.90;;;;;;;;;;5366676;26;20015;-52
2024/04/23 08:26:00;;;;;;;8.07;3.80;;;;;;;;;;5368488;26;20001;-55
2024/04/23 08:28:26;;;;;;;6.45;3.95;;;;;;;;;;5360096;26;20434;-54
2024/04/23 08:30:51;;;;;;;6.18;3.92;;;;;;;;;;5362545;26;20048;-53
2024/04/23 08:33:16;;;;;;;9.40;3.60;;;;;;;;;;5366129;26;19997;-51
2024/04/23 08:35:41;;;;;;;8.35;3.78;;;;;;;;;;5359462;26;19996;-52
2024/04/23 08:38:06;;;;;;;7.85;3.53;;;;;;;;;;5374617;26;20406;-52
2024/04/23 08:40:34;;;;;;;8.10;4.25;;;;;;;;;;5364310;26;19996;-53
2024/04/23 08:43:03;;;;;;;6.40;4.03;;;;;;;;;;5358887;26;20001;-55
2024/04/23 08:45:32;;;;;;;8.43;4.65;;;;;;;;;;5359435;26;20406;-52
2024/04/23 08:47:58;;;;;;;7.75;4.00;;;;;;;;;;5367088;26;20041;-51
2024/04/23 08:50:24;;;;;;;6.65;3.50;;;;;;;;;;5365346;26;20001;-53
2024/04/23 08:52:50;;;;;;;11.80;3.50;;;;;;;;;;5369049;26;20404;-55
2024/04/23 08:55:15;;;;;;;5.90;3.30;;;;;;;;;;5378154;26;20000;-55
2024/04/23 08:57:40;;;;;;;8.60;3.72;;;;;;;;;;5377732;26;20349;-51
2024/04/23 09:00:08;;;;;;;6.60;3.47;;;;;;;;;;5391048;26;20009;-51
2024/04/23 09:02:35;;;;;;;6.03;2.80;;;;;;;;;;5350386;26;20005;-51
2024/04/23 09:05:02;;;;;;;6.00;3.50;;;;;;;;;;5348442;26;19992;-51
2024/04/23 09:07:27;;;;;;;4.63;2.70;;;;;;;;;;5349646;26;20301;-53
2024/04/23 09:09:53;;;;;;;4.82;2.88;;;;;;;;;;5367289;26;20000;-53
2024/04/23 09:12:18;;;;;;;5.30;3.05;;;;;;;;;;5388583;26;20009;-53
2024/04/23 09:14:44;;;;;;;7.00;3.05;;;;;;;;;;5379729;26;20008;-51
2024/04/23 09:17:10;;;;;;;5.22;2.70;;;;;;;;;;5394691;26;20000;-51
2024/04/23 09:19:35;;;;;;;5.72;2.80;;;;;;;;;;5363037;26;20399;-52
2024/04/23 09:22:00;;;;;;;7.65;2.70;;;;;;;;;;5383933;26;20011;-53
2024/04/23 09:24:30;;;;;;;4.88;2.70;;;;;;;;;;5358952;26;20009;-53
2024/04/23 09:26:55;;;;;;;6.43;2.65;;;;;;;;;;5362933;26;20355;-55
2024/04/23 09:29:21;;;;;;;6.35;2.63;;;;;;;;;;5360505;26;20005;-53
2024/04/23 09:31:46;;;;;;;6.57;3.08;;;;;;;;;;5363535;26;20191;-52
2024/04/23 09:34:12;;;;;;;7.97;2.80;;;;;;;;;;5371116;26;20327;-52
2024/04/23 09:36:38;;;;;;;5.68;2.75;;;;;;;;;;5355530;26;19997;-53
2024/04/23 09:39:13;;;;;;;6.35;3.03;;;;;;;;;;5368127;26;20005;-55
2024/04/23 09:41:39;;;;;;;6.40;2.80;;;;;;;;;;5383865;26;20003;-53
2024/04/23 09:44:08;;;;;;;7.25;3.30;;;;;;;;;;5364258;26;19992;-52
2024/04/23 09:46:33;;;;;;;7.13;2.95;;;;;;;;;;5362677;26;20005;-54
2024/04/23 09:49:02;;;;;;;4.80;2.70;;;;;;;;;;5381094;26;20393;-55
2024/04/23 09:51:28;;;;;;;5.13;2.50;;;;;;;;;;5386909;26;20012;-52
2024/04/23 09:53:53;;;;;;;6.25;3.17;;;;;;;;;;5384335;26;20070;-53
2024/04/23 09:56:19;;;;;;;7.43;3.10;;;;;;;;;;5414878;26;20019;-51
2024/04/23 09:58:45;;;;;;;6.20;3.03;;;;;;;;;;5416235;26;20000;-51
2024/04/23 10:01:11;;;;;;;5.53;2.65;;;;;;;;;;5419692;26;20032;-52
2024/04/23 10:03:39;;;;;;;7.05;2.97;;;;;;;;;;5419780;26;20000;-51
2024/04/23 10:06:09;;;;;;;4.90;2.90;;;;;;;;;;5419529;26;19995;-54
2024/04/23 10:08:43;;;;;;;6.28;2.70;;;;;;;;;;5418897;26;19992;-51
2024/04/23 10:11:13;;;;;;;6.88;2.78;;;;;;;;;;5419786;26;20010;-55
2024/04/23 10:13:44;;;;;;;6.30;2.65;;;;;;;;;;5419567;26;20064;-51
2024/04/23 10:16:29;;;;;;;6.30;2.40;;;;;;;;;;5416828;26;20432;-52
2024/04/23 10:18:54;;;;;;;5.90;3.13;;;;;;;;;;5419652;26;20041;-51
2024/04/23 10:21:24;;;;;;;5.95;3.00;;;;;;;;;;5419496;26;20003;-51
2024/04/23 10:23:51;;;;;;;4.70;2.90;;;;;;;;;;5408030;26;20409;-53
2024/04/23 10:26:16;;;;;;;5.38;3.10;;;;;;;;;;5402688;26;20288;-51
2024/04/23 10:28:42;;;;;;;7.97;3.70;;;;;;;;;;5419205;26;19995;-52
2024/04/23 10:31:08;;;;;;;6.53;3.20;;;;;;;;;;5419221;26;19992;-53
2024/04/23 10:33:33;;;;;;;5.07;3.30;;;;;;;;;;5419348;26;20000;-56
2024/04/23 10:35:59;;;;;;;5.93;3.40;;;;;;;;;;5419260;26;20323;-52
2024/04/23 10:38:25;;;;;;;6.63;3.58;;;;;;;;;;5391571;26;19992;-55
2024/04/23 10:40:51;;;;;;;5.97;3.30;;;;;;;;;;5383139;26;19996;-55
2024/04/23 10:43:16;;;;;;;5.85;2.90;;;;;;;;;;5383318;26;20091;-51
2024/04/23 10:45:42;;;;;;;10.40;3.45;;;;;;;;;;5377158;26;20394;-51
2024/04/23 10:48:08;;;;;;;5.50;2.85;;;;;;;;;;5348965;26;20390;-52
2024/04/23 10:50:33;;;;;;;7.35;3.20;;;;;;;;;;5348654;26;20410;-51
2024/04/23 10:53:01;;;;;;;5.57;3.00;;;;;;;;;;5386618;26;19996;-51
2024/04/23 10:55:26;;;;;;;5.72;3.03;;;;;;;;;;5406605;26;20285;-51
2024/04/23 10:57:52;;;;;;;5.03;3.20;;;;;;;;;;5420671;26;19999;-52
2024/04/23 11:00:24;;;;;;;6.25;3.22;;;;;;;;;;5420783;26;20430;-51
2024/04/23 11:02:51;;;;;;;6.85;3.03;;;;;;;;;;5422722;26;20010;-51
2024/04/23 11:05:17;;;;;;;6.38;3.60;;;;;;;;;;5408872;26;20272;-51
2024/04/23 11:07:48;;;;;;;12.13;3.97;;;;;;;;;;5422600;26;20002;-53
2024/04/23 11:10:17;;;;;;;6.15;3.70;;;;;;;;;;5405108;26;20070;-53
2024/04/23 11:12:44;;;;;;;10.13;3.58;;;;;;;;;;5386728;26;19996;-52
2024/04/23 11:15:13;;;;;;;10.45;3.75;;;;;;;;;;5386583;26;19996;-51
2024/04/23 11:17:41;;;;;;;6.57;3.65;;;;;;;;;;5388236;26;20003;-53
2024/04/23 11:20:07;;;;;;;8.15;3.88;;;;;;;;;;5404323;26;19995;-53
2024/04/23 11:22:41;;;;;;;9.50;4.03;;;;;;;;;;5422574;26;20298;-52
2024/04/23 11:25:07;;;;;;;10.68;4.63;;;;;;;;;;5421443;26;20036;-52
2024/04/23 11:27:32;;;;;;;8.48;4.25;;;;;;;;;;5419992;26;19988;-52
2024/04/23 11:29:58;;;;;;;8.43;4.43;;;;;;;;;;5423191;26;20014;-53
2024/04/23 11:32:23;;;;;;;8.60;4.15;;;;;;;;;;5422343;26;19996;-51
2024/04/23 11:34:49;;;;;;;7.32;4.40;;;;;;;;;;5397299;26;20388;-55
2024/04/23 11:37:24;;;;;;;8.23;4.35;;;;;;;;;;5389463;26;20009;-55
2024/04/23 11:39:59;;;;;;;9.13;4.88;;;;;;;;;;5384487;26;20413;-51
2024/04/23 11:42:29;;;;;;;8.25;4.65;;;;;;;;;;5385989;26;20328;-55
2024/04/23 11:45:03;;;;;;;6.80;4.35;;;;;;;;;;5402816;26;20377;-55
2024/04/23 11:47:29;;;;;;;8.90;4.55;;;;;;;;;;5421486;26;19992;-55
2024/04/23 11:49:54;;;;;;;9.05;4.72;;;;;;;;;;5421414;26;20006;-54
2024/04/23 11:52:23;;;;;;;8.57;3.95;;;;;;;;;;5421414;26;19996;-55
2024/04/23 11:54:49;;;;;;;7.90;4.07;;;;;;;;;;5421214;26;19995;-53
2024/04/23 11:57:15;;;;;;;6.78;3.78;;;;;;;;;;5419619;26;20003;-56
2024/04/23 11:59:44;;;;;;;8.40;4.03;;;;;;;;;;5420863;26;20006;-55
2024/04/23 12:02:09;;;;;;;7.30;3.92;;;;;;;;;;5400328;26;20008;-50
2024/04/23 12:04:35;;;;;;;6.18;3.80;;;;;;;;;;5385568;26;20301;-53
2024/04/23 12:07:01;;;;;;;8.25;3.97;;;;;;;;;;5385887;26;20004;-50
2024/04/23 12:09:27;;;;;;;9.85;3.83;;;;;;;;;;5385497;26;20411;-52
2024/04/23 12:11:52;;;;;;;8.20;4.20;;;;;;;;;;5406835;26;20027;-52
2024/04/23 12:14:19;;;;;;;9.27;4.00;;;;;;;;;;5419740;26;20073;-52
2024/04/23 12:16:45;;;;;;;9.15;3.33;;;;;;;;;;5421308;26;20003;-50
2024/04/23 12:19:10;;;;;;;11.23;4.13;;;;;;;;;;5385240;26;20296;-51
2024/04/23 12:21:36;;;;;;;7.65;4.00;;;;;;;;;;5385615;26;20011;-51
2024/04/23 12:24:02;;;;;;;6.20;3.40;;;;;;;;;;5408247;26;20053;-50
2024/04/23 12:26:27;;;;;;;6.97;3.72;;;;;;;;;;5411276;26;20391;-51
2024/04/23 12:28:53;;;;;;;6.05;3.22;;;;;;;;;;5394683;26;20015;-51
2024/04/23 12:31:18;;;;;;;5.85;2.80;;;;;;;;;;5389288;26;19997;-52
2024/04/23 12:33:43;;;;;;;4.50;2.60;;;;;;;;;;5421039;26;20003;-52
2024/04/23 12:36:11;;;;;;;7.53;2.97;;;;;;;;;;5418429;26;20049;-51
2024/04/23 12:38:42;;;;;;;4.57;2.88;;;;;;;;;;5420788;26;20068;-53
2024/04/23 12:41:08;;;;;;;6.60;3.03;;;;;;;;;;5420882;26;20305;-54
2024/04/23 12:43:33;;;;;;;7.35;3.00;;;;;;;;;;5421482;26;20003;-55
2024/04/23 12:45:58;;;;;;;6.13;3.17;;;;;;;;;;5411995;26;20000;-51
2024/04/23 12:48:23;;;;;;;6.38;3.60;;;;;;;;;;5396210;26;20011;-52
2024/04/23 12:50:49;;;;;;;7.63;3.50;;;;;;;;;;5413734;26;20006;-53
2024/04/23 12:53:14;;;;;;;7.13;3.50;;;;;;;;;;5421727;26;19995;-51
2024/04/23 12:55:39;;;;;;;5.70;3.10;;;;;;;;;;5405966;26;19992;-51
2024/04/23 12:58:04;;;;;;;5.68;3.17;;;;;;;;;;5390633;26;20382;-52
2024/04/23 13:00:30;;;;;;;6.32;3.90;;;;;;;;;;5420327;26;20006;-51
2024/04/23 13:02:55;;;;;;;6.20;3.85;;;;;;;;;;5420243;26;20006;-52
2024/04/23 13:05:20;;;;;;;6.95;3.47;;;;;;;;;;5388431;26;19993;-50
2024/04/23 13:07:45;;;;;;;6.80;3.30;;;;;;;;;;5417621;26;19999;-53
2024/04/23 13:10:12;;;;;;;7.80;3.35;;;;;;;;;;5411639;26;19996;-50
2024/04/23 13:12:37;;;;;;;7.88;3.25;;;;;;;;;;5384847;26;20440;-51
2024/04/23 13:15:02;;;;;;;5.18;3.33;;;;;;;;;;5383843;26;20000;-51
2024/04/23 13:17:28;;;;;;;5.25;3.40;;;;;;;;;;5419865;26;20376;-53
2024/04/23 13:19:53;;;;;;;7.93;3.40;;;;;;;;;;5419498;26;20014;-51
2024/04/23 13:22:18;;;;;;;5.20;2.83;;;;;;;;;;5402348;26;20007;-50
2024/04/23 13:24:43;;;;;;;5.10;2.58;;;;;;;;;;5413542;26;19995;-51
2024/04/23 13:27:08;;;;;;;8.13;3.50;;;;;;;;;;5384998;26;19992;-54
2024/04/23 13:29:34;;;;;;;4.55;2.85;;;;;;;;;;5387648;26;19997;-51
2024/04/23 13:32:00;;;;;;;5.18;2.83;;;;;;;;;;5420773;26;20269;-50
2024/04/23 13:34:25;;;;;;;5.20;2.80;;;;;;;;;;5417360;26;20071;-50
2024/04/23 13:36:50;;;;;;;6.18;3.08;;;;;;;;;;5410509;26;20008;-54
2024/04/23 13:39:16;;;;;;;5.35;2.90;;;;;;;;;;5384535;26;19996;-50
2024/04/23 13:41:41;;;;;;;6.18;3.05;;;;;;;;;;5416519;26;20002;-50
2024/04/23 13:44:06;;;;;;;7.10;3.08;;;;;;;;;;5420280;26;19995;-51
2024/04/23 13:46:31;;;;;;;5.60;3.10;;;;;;;;;;5417721;26;19996;-51
2024/04/23 13:48:56;;;;;;;8.88;3.40;;;;;;;;;;5419826;26;20410;-50
2024/04/23 13:51:22;;;;;;;7.70;3.60;;;;;;;;;;5419198;26;20004;-53
2024/04/23 13:53:47;;;;;;;5.20;3.35;;;;;;;;;;5420618;26;20000;-51
2024/04/23 13:56:12;;;;;;;5.85;3.08;;;;;;;;;;5418981;26;20065;-51
2024/04/23 13:58:37;;;;;;;7.72;3.10;;;;;;;;;;5419173;26;19987;-53
2024/04/23 14:01:09;;;;;;;5.65;3.20;;;;;;;;;;5402120;26;20000;-52
2024/04/23 14:03:34;;;;;;;7.32;3.50;;;;;;;;;;5384660;26;20032;-53
2024/04/23 14:06:03;;;;;;;5.97;3.67;;;;;;;;;;5384464;26;20281;-51
2024/04/23 14:08:29;;;;;;;6.25;4.10;;;;;;;;;;5384127;26;20050;-53
2024/04/23 14:10:58;;;;;;;6.53;3.90;;;;;;;;;;5382203;26;19992;-53
2024/04/23 14:13:23;;;;;;;5.55;3.42;;;;;;;;;;5384735;26;20004;-51
2024/04/23 14:15:49;;;;;;;5.88;3.10;;;;;;;;;;5392065;26;20074;-53
2024/04/23 14:18:14;;;;;;;8.50;3.30;;;;;;;;;;5384911;26;20046;-52
2024/04/23 14:20:39;;;;;;;6.93;3.50;;;;;;;;;;5383844;26;19988;-51
2024/04/23 14:23:04;;;;;;;6.18;3.50;;;;;;;;;;5383955;26;19988;-51
2024/04/23 14:25:30;;;;;;;5.95;3.40;;;;;;;;;;5384562;26;19992;-51
2024/04/23 14:27:55;;;;;;;5.10;3.30;;;;;;;;;;5390171;26;20011;-53
2024/04/23 14:30:21;;;;;;;6.00;3.80;;;;;;;;;;5421026;26;19995;-52
2024/04/23 14:32:47;;;;;;;6.32;3.05;;;;;;;;;;5423073;26;19996;-54
2024/04/23 14:35:12;;;;;;;7.15;3.20;;;;;;;;;;5420075;26;20389;-51